sensor_id;sensor_type;location;lat;lon;timestamp;P1;durP1;ratioP1;P2;durP2;ratioP2
14994;SDS011;7593;49.006;8.372;2024-02-21T00:00:20;9.68;;;4.55;;
14994;SDS011;7593;49.006;8.372;2024-02-21T00:02:47;9.98;;;5.40;;
14994;SDS011;7593;49.006;8.372;2024-02-21T00:05:15;9.25;;;6.72;;
14994;SDS011;7593;49.006;8.372;2024-02-21T00:07:41;12.05;;;4.80;;
14994;SDS011;7593;49.006;8.372;2024-02-21T00:10:08;13.77;;;4.80;;
14994;SDS011;7593;49.006;8.372;2024-02-21T00:12:35;11.15;;;4.82;;
14994;SDS011;7593;49.006;8.372;2024-02-21T00:15:02;10.98;;;4.55;;
14994;SDS011;7593;49.006;8.372;2024-02-21T00:17:29;10.52;;;4.50;;
14994;SDS011;7593;49.006;8.372;2024-02-21T00:19:56;8.02;;;4.00;;
14994;SDS011;7593;49.006;8.372;2024-02-21T00:22:24;9.80;;;4.13;;
14994;SDS011;7593;49.006;8.372;2024-02-21T00:24:53;10.02;;;4.43;;
14994;SDS011;7593;49.006;8.372;2024-02-21T00:27:20;8.27;;;3.97;;
14994;SDS011;7593;49.006;8.372;2024-02-21T00:29:46;9.55;;;4.20;;
14994;SDS011;7593;49.006;8.372;2024-02-21T00:32:13;8.93;;;4.65;;
14994;SDS011;7593;49.006;8.372;2024-02-21T00:34:40;8.25;;;3.88;;
14994;SDS011;7593;49.006;8.372;2024-02-21T00:37:06;10.27;;;4.60;;
14994;SDS011;7593;49.006;8.372;2024-02-21T00:39:34;7.68;;;4.47;;
14994;SDS011;7593;49.006;8.372;2024-02-21T00:42:02;11.13;;;4.20;;
14994;SDS011;7593;49.006;8.372;2024-02-21T00:44:29;9.18;;;4.20;;
14994;SDS011;7593;49.006;8.372;2024-02-21T00:46:55;10.18;;;4.93;;
14994;SDS011;7593;49.006;8.372;2024-02-21T00:49:22;9.02;;;4.07;;
14994;SDS011;7593;49.006;8.372;2024-02-21T00:51:49;8.43;;;4.25;;
14994;SDS011;7593;49.006;8.372;2024-02-21T00:54:15;8.25;;;3.80;;
14994;SDS011;7593;49.006;8.372;2024-02-21T00:56:44;6.95;;;4.13;;
14994;SDS011;7593;49.006;8.372;2024-02-21T00:59:10;12.73;;;4.70;;
14994;SDS011;7593;49.006;8.372;2024-02-21T01:01:37;8.48;;;3.90;;
14994;SDS011;7593;49.006;8.372;2024-02-21T01:04:06;8.32;;;4.07;;
14994;SDS011;7593;49.006;8.372;2024-02-21T01:06:33;10.82;;;4.50;;
14994;SDS011;7593;49.006;8.372;2024-02-21T01:09:00;10.90;;;5.07;;
14994;SDS011;7593;49.006;8.372;2024-02-21T01:11:27;12.43;;;4.53;;
14994;SDS011;7593;49.006;8.372;2024-02-21T01:13:55;8.93;;;4.35;;
14994;SDS011;7593;49.006;8.372;2024-02-21T01:16:21;9.18;;;4.63;;
14994;SDS011;7593;49.006;8.372;2024-02-21T01:18:48;11.43;;;4.60;;
14994;SDS011;7593;49.006;8.372;2024-02-21T01:21:15;11.93;;;4.55;;
14994;SDS011;7593;49.006;8.372;2024-02-21T01:23:41;10.77;;;4.85;;
14994;SDS011;7593;49.006;8.372;2024-02-21T01:26:08;12.35;;;4.93;;
14994;SDS011;7593;49.006;8.372;2024-02-21T01:28:39;11.38;;;4.93;;
14994;SDS011;7593;49.006;8.372;2024-02-21T01:31:08;12.10;;;4.75;;
14994;SDS011;7593;49.006;8.372;2024-02-21T01:33:35;10.45;;;4.70;;
14994;SDS011;7593;49.006;8.372;2024-02-21T01:36:04;10.80;;;4.80;;
14994;SDS011;7593;49.006;8.372;2024-02-21T01:38:32;11.63;;;4.70;;
14994;SDS011;7593;49.006;8.372;2024-02-21T01:40:58;10.50;;;4.28;;
14994;SDS011;7593;49.006;8.372;2024-02-21T01:43:25;8.95;;;4.28;;
14994;SDS011;7593;49.006;8.372;2024-02-21T01:45:52;8.45;;;4.25;;
14994;SDS011;7593;49.006;8.372;2024-02-21T01:48:23;11.23;;;4.22;;
14994;SDS011;7593;49.006;8.372;2024-02-21T01:50:51;11.13;;;4.68;;
14994;SDS011;7593;49.006;8.372;2024-02-21T01:53:20;10.45;;;4.05;;
14994;SDS011;7593;49.006;8.372;2024-02-21T01:55:49;9.65;;;4.15;;
14994;SDS011;7593;49.006;8.372;2024-02-21T01:58:16;10.45;;;4.55;;
14994;SDS011;7593;49.006;8.372;2024-02-21T02:00:45;10.50;;;4.38;;
14994;SDS011;7593;49.006;8.372;2024-02-21T02:03:13;10.10;;;4.45;;
14994;SDS011;7593;49.006;8.372;2024-02-21T02:05:43;9.82;;;4.15;;
14994;SDS011;7593;49.006;8.372;2024-02-21T02:08:11;10.73;;;4.40;;
14994;SDS011;7593;49.006;8.372;2024-02-21T02:10:39;9.13;;;4.25;;
14994;SDS011;7593;49.006;8.372;2024-02-21T02:13:06;12.95;;;4.32;;
14994;SDS011;7593;49.006;8.372;2024-02-21T02:15:39;10.43;;;4.47;;
14994;SDS011;7593;49.006;8.372;2024-02-21T02:18:06;9.32;;;4.68;;
14994;SDS011;7593;49.006;8.372;2024-02-21T02:20:33;8.68;;;4.25;;
14994;SDS011;7593;49.006;8.372;2024-02-21T02:23:01;10.35;;;4.32;;
14994;SDS011;7593;49.006;8.372;2024-02-21T02:25:35;12.38;;;4.38;;
14994;SDS011;7593;49.006;8.372;2024-02-21T02:28:03;8.85;;;4.40;;
14994;SDS011;7593;49.006;8.372;2024-02-21T02:30:31;8.95;;;4.55;;
14994;SDS011;7593;49.006;8.372;2024-02-21T02:33:02;8.88;;;3.92;;
14994;SDS011;7593;49.006;8.372;2024-02-21T02:35:29;11.65;;;4.25;;
14994;SDS011;7593;49.006;8.372;2024-02-21T02:37:56;13.38;;;4.30;;
14994;SDS011;7593;49.006;8.372;2024-02-21T02:40:23;8.40;;;4.18;;
14994;SDS011;7593;49.006;8.372;2024-02-21T02:42:51;7.53;;;4.18;;
14994;SDS011;7593;49.006;8.372;2024-02-21T02:45:20;11.45;;;4.38;;
14994;SDS011;7593;49.006;8.372;2024-02-21T02:47:48;11.52;;;4.40;;
14994;SDS011;7593;49.006;8.372;2024-02-21T02:50:15;13.75;;;5.28;;
14994;SDS011;7593;49.006;8.372;2024-02-21T02:52:42;10.13;;;4.47;;
14994;SDS011;7593;49.006;8.372;2024-02-21T02:55:09;9.38;;;3.88;;
14994;SDS011;7593;49.006;8.372;2024-02-21T02:57:35;9.70;;;4.60;;
14994;SDS011;7593;49.006;8.372;2024-02-21T03:00:04;12.55;;;4.53;;
14994;SDS011;7593;49.006;8.372;2024-02-21T03:02:32;10.18;;;4.60;;
14994;SDS011;7593;49.006;8.372;2024-02-21T03:04:59;12.02;;;4.10;;
14994;SDS011;7593;49.006;8.372;2024-02-21T03:07:26;8.27;;;4.20;;
14994;SDS011;7593;49.006;8.372;2024-02-21T03:09:53;8.90;;;4.55;;
14994;SDS011;7593;49.006;8.372;2024-02-21T03:12:19;10.60;;;4.22;;
14994;SDS011;7593;49.006;8.372;2024-02-21T03:14:52;6.00;;;3.50;;
14994;SDS011;7593;49.006;8.372;2024-02-21T03:17:23;10.05;;;4.10;;
14994;SDS011;7593;49.006;8.372;2024-02-21T03:19:52;8.77;;;3.75;;
14994;SDS011;7593;49.006;8.372;2024-02-21T03:22:20;11.30;;;4.30;;
14994;SDS011;7593;49.006;8.372;2024-02-21T03:24:47;7.22;;;3.97;;
14994;SDS011;7593;49.006;8.372;2024-02-21T03:27:14;7.90;;;3.85;;
14994;SDS011;7593;49.006;8.372;2024-02-21T03:29:40;7.30;;;3.63;;
14994;SDS011;7593;49.006;8.372;2024-02-21T03:32:07;6.68;;;3.92;;
14994;SDS011;7593;49.006;8.372;2024-02-21T03:34:36;10.43;;;4.30;;
14994;SDS011;7593;49.006;8.372;2024-02-21T03:37:03;9.25;;;3.47;;
14994;SDS011;7593;49.006;8.372;2024-02-21T03:39:30;8.20;;;3.90;;
14994;SDS011;7593;49.006;8.372;2024-02-21T03:41:57;9.77;;;3.90;;
14994;SDS011;7593;49.006;8.372;2024-02-21T03:44:26;8.48;;;3.97;;
14994;SDS011;7593;49.006;8.372;2024-02-21T03:46:52;7.65;;;3.72;;
14994;SDS011;7593;49.006;8.372;2024-02-21T03:49:19;10.13;;;4.15;;
14994;SDS011;7593;49.006;8.372;2024-02-21T03:51:47;9.40;;;4.20;;
14994;SDS011;7593;49.006;8.372;2024-02-21T03:54:14;7.50;;;3.60;;
14994;SDS011;7593;49.006;8.372;2024-02-21T03:56:41;11.35;;;4.40;;
14994;SDS011;7593;49.006;8.372;2024-02-21T03:59:08;7.30;;;3.90;;
14994;SDS011;7593;49.006;8.372;2024-02-21T04:01:34;8.85;;;4.10;;
14994;SDS011;7593;49.006;8.372;2024-02-21T04:04:01;6.63;;;3.85;;
14994;SDS011;7593;49.006;8.372;2024-02-21T04:06:28;9.52;;;4.18;;
14994;SDS011;7593;49.006;8.372;2024-02-21T04:08:57;9.80;;;3.92;;
14994;SDS011;7593;49.006;8.372;2024-02-21T04:11:24;11.80;;;3.92;;
14994;SDS011;7593;49.006;8.372;2024-02-21T04:13:50;9.70;;;3.72;;
14994;SDS011;7593;49.006;8.372;2024-02-21T04:16:17;10.73;;;4.28;;
14994;SDS011;7593;49.006;8.372;2024-02-21T04:18:44;8.85;;;4.25;;
14994;SDS011;7593;49.006;8.372;2024-02-21T04:21:13;9.38;;;3.60;;
14994;SDS011;7593;49.006;8.372;2024-02-21T04:23:41;6.97;;;3.47;;
14994;SDS011;7593;49.006;8.372;2024-02-21T04:26:09;8.02;;;3.88;;
14994;SDS011;7593;49.006;8.372;2024-02-21T04:28:35;7.80;;;3.80;;
14994;SDS011;7593;49.006;8.372;2024-02-21T04:31:03;10.85;;;3.88;;
14994;SDS011;7593;49.006;8.372;2024-02-21T04:33:30;7.07;;;3.85;;
14994;SDS011;7593;49.006;8.372;2024-02-21T04:35:56;9.75;;;4.05;;
14994;SDS011;7593;49.006;8.372;2024-02-21T04:38:24;8.27;;;3.80;;
14994;SDS011;7593;49.006;8.372;2024-02-21T04:40:51;8.90;;;4.20;;
14994;SDS011;7593;49.006;8.372;2024-02-21T04:43:19;6.07;;;3.40;;
14994;SDS011;7593;49.006;8.372;2024-02-21T04:45:46;6.97;;;4.07;;
14994;SDS011;7593;49.006;8.372;2024-02-21T04:48:12;11.65;;;4.70;;
14994;SDS011;7593;49.006;8.372;2024-02-21T04:50:39;7.07;;;4.03;;
14994;SDS011;7593;49.006;8.372;2024-02-21T04:53:06;9.43;;;4.30;;
14994;SDS011;7593;49.006;8.372;2024-02-21T04:55:33;7.00;;;4.10;;
14994;SDS011;7593;49.006;8.372;2024-02-21T04:57:59;13.68;;;4.28;;
14994;SDS011;7593;49.006;8.372;2024-02-21T05:00:28;8.20;;;4.43;;
14994;SDS011;7593;49.006;8.372;2024-02-21T05:02:55;11.40;;;4.60;;
14994;SDS011;7593;49.006;8.372;2024-02-21T05:05:22;8.50;;;4.28;;
14994;SDS011;7593;49.006;8.372;2024-02-21T05:07:48;11.23;;;4.50;;
14994;SDS011;7593;49.006;8.372;2024-02-21T05:10:15;9.33;;;4.37;;
14994;SDS011;7593;49.006;8.372;2024-02-21T05:12:42;8.63;;;4.45;;
14994;SDS011;7593;49.006;8.372;2024-02-21T05:15:09;9.07;;;4.30;;
14994;SDS011;7593;49.006;8.372;2024-02-21T05:17:37;9.32;;;4.38;;
14994;SDS011;7593;49.006;8.372;2024-02-21T05:20:04;10.47;;;4.50;;
14994;SDS011;7593;49.006;8.372;2024-02-21T05:22:32;16.40;;;5.03;;
14994;SDS011;7593;49.006;8.372;2024-02-21T05:24:59;10.63;;;4.57;;
14994;SDS011;7593;49.006;8.372;2024-02-21T05:27:25;10.13;;;4.93;;
14994;SDS011;7593;49.006;8.372;2024-02-21T05:29:53;9.13;;;4.90;;
14994;SDS011;7593;49.006;8.372;2024-02-21T05:32:20;10.40;;;5.00;;
14994;SDS011;7593;49.006;8.372;2024-02-21T05:34:49;10.57;;;5.37;;
14994;SDS011;7593;49.006;8.372;2024-02-21T05:37:16;10.20;;;4.70;;
14994;SDS011;7593;49.006;8.372;2024-02-21T05:39:51;8.57;;;4.33;;
14994;SDS011;7593;49.006;8.372;2024-02-21T05:42:18;10.47;;;4.80;;
14994;SDS011;7593;49.006;8.372;2024-02-21T05:44:44;9.00;;;4.93;;
14994;SDS011;7593;49.006;8.372;2024-02-21T05:47:11;10.70;;;4.60;;
14994;SDS011;7593;49.006;8.372;2024-02-21T05:49:40;12.27;;;4.57;;
14994;SDS011;7593;49.006;8.372;2024-02-21T05:52:08;9.90;;;4.40;;
14994;SDS011;7593;49.006;8.372;2024-02-21T05:54:37;9.80;;;4.40;;
14994;SDS011;7593;49.006;8.372;2024-02-21T05:57:04;10.27;;;4.40;;
14994;SDS011;7593;49.006;8.372;2024-02-21T05:59:32;7.73;;;4.10;;
14994;SDS011;7593;49.006;8.372;2024-02-21T06:02:00;7.73;;;4.00;;
14994;SDS011;7593;49.006;8.372;2024-02-21T06:04:28;9.33;;;4.40;;
14994;SDS011;7593;49.006;8.372;2024-02-21T06:06:55;8.33;;;4.17;;
14994;SDS011;7593;49.006;8.372;2024-02-21T06:09:23;10.80;;;4.13;;
14994;SDS011;7593;49.006;8.372;2024-02-21T06:11:50;9.17;;;4.37;;
14994;SDS011;7593;49.006;8.372;2024-02-21T06:14:17;7.63;;;4.33;;
14994;SDS011;7593;49.006;8.372;2024-02-21T06:16:43;10.67;;;4.40;;
14994;SDS011;7593;49.006;8.372;2024-02-21T06:19:10;7.73;;;4.00;;
14994;SDS011;7593;49.006;8.372;2024-02-21T06:21:37;8.87;;;4.27;;
14994;SDS011;7593;49.006;8.372;2024-02-21T06:24:04;10.30;;;4.27;;
14994;SDS011;7593;49.006;8.372;2024-02-21T06:26:32;10.37;;;4.27;;
14994;SDS011;7593;49.006;8.372;2024-02-21T06:28:59;6.80;;;3.80;;
14994;SDS011;7593;49.006;8.372;2024-02-21T06:31:26;11.37;;;4.53;;
14994;SDS011;7593;49.006;8.372;2024-02-21T06:33:54;9.27;;;4.43;;
14994;SDS011;7593;49.006;8.372;2024-02-21T06:36:20;10.33;;;4.40;;
14994;SDS011;7593;49.006;8.372;2024-02-21T06:38:47;10.20;;;4.30;;
14994;SDS011;7593;49.006;8.372;2024-02-21T06:41:15;8.77;;;4.40;;
14994;SDS011;7593;49.006;8.372;2024-02-21T06:43:44;8.87;;;4.50;;
14994;SDS011;7593;49.006;8.372;2024-02-21T06:46:11;9.43;;;4.10;;
14994;SDS011;7593;49.006;8.372;2024-02-21T06:48:38;8.77;;;4.47;;
14994;SDS011;7593;49.006;8.372;2024-02-21T06:51:05;10.53;;;4.60;;
14994;SDS011;7593;49.006;8.372;2024-02-21T06:53:32;9.17;;;4.50;;
14994;SDS011;7593;49.006;8.372;2024-02-21T06:55:58;10.93;;;4.40;;
14994;SDS011;7593;49.006;8.372;2024-02-21T06:58:25;10.20;;;4.37;;
14994;SDS011;7593;49.006;8.372;2024-02-21T07:00:53;9.97;;;4.53;;
14994;SDS011;7593;49.006;8.372;2024-02-21T07:03:20;8.03;;;4.07;;
14994;SDS011;7593;49.006;8.372;2024-02-21T07:05:49;10.00;;;4.57;;
14994;SDS011;7593;49.006;8.372;2024-02-21T07:08:15;10.55;;;4.90;;
14994;SDS011;7593;49.006;8.372;2024-02-21T07:10:42;6.30;;;4.00;;
14994;SDS011;7593;49.006;8.372;2024-02-21T07:13:09;8.83;;;4.10;;
14994;SDS011;7593;49.006;8.372;2024-02-21T07:15:35;7.53;;;4.10;;
14994;SDS011;7593;49.006;8.372;2024-02-21T07:18:04;9.13;;;4.43;;
14994;SDS011;7593;49.006;8.372;2024-02-21T07:20:31;9.60;;;4.37;;
14994;SDS011;7593;49.006;8.372;2024-02-21T07:22:58;8.35;;;3.83;;
14994;SDS011;7593;49.006;8.372;2024-02-21T07:25:25;7.93;;;4.03;;
14994;SDS011;7593;49.006;8.372;2024-02-21T07:27:52;7.50;;;4.23;;
14994;SDS011;7593;49.006;8.372;2024-02-21T07:30:20;9.03;;;4.00;;
14994;SDS011;7593;49.006;8.372;2024-02-21T07:32:48;9.13;;;4.60;;
14994;SDS011;7593;49.006;8.372;2024-02-21T07:35:17;8.30;;;4.30;;
14994;SDS011;7593;49.006;8.372;2024-02-21T07:37:44;8.43;;;4.07;;
14994;SDS011;7593;49.006;8.372;2024-02-21T07:40:12;10.85;;;4.10;;
14994;SDS011;7593;49.006;8.372;2024-02-21T07:42:39;8.90;;;3.83;;
14994;SDS011;7593;49.006;8.372;2024-02-21T07:45:06;8.43;;;4.43;;
14994;SDS011;7593;49.006;8.372;2024-02-21T07:47:33;8.38;;;4.05;;
14994;SDS011;7593;49.006;8.372;2024-02-21T07:50:00;7.63;;;4.28;;
14994;SDS011;7593;49.006;8.372;2024-02-21T07:52:29;9.73;;;4.05;;
14994;SDS011;7593;49.006;8.372;2024-02-21T07:54:56;8.88;;;3.90;;
14994;SDS011;7593;49.006;8.372;2024-02-21T07:57:23;8.32;;;4.03;;
14994;SDS011;7593;49.006;8.372;2024-02-21T07:59:50;6.95;;;4.32;;
14994;SDS011;7593;49.006;8.372;2024-02-21T08:02:17;7.95;;;4.10;;
14994;SDS011;7593;49.006;8.372;2024-02-21T08:04:44;15.52;;;8.48;;
14994;SDS011;7593;49.006;8.372;2024-02-21T08:07:11;11.02;;;6.00;;
14994;SDS011;7593;49.006;8.372;2024-02-21T08:09:40;8.75;;;3.78;;
14994;SDS011;7593;49.006;8.372;2024-02-21T08:12:07;8.10;;;3.45;;
14994;SDS011;7593;49.006;8.372;2024-02-21T08:14:34;11.50;;;4.50;;
14994;SDS011;7593;49.006;8.372;2024-02-21T08:17:01;8.55;;;4.15;;
14994;SDS011;7593;49.006;8.372;2024-02-21T08:19:28;12.00;;;6.45;;
14994;SDS011;7593;49.006;8.372;2024-02-21T08:21:56;8.68;;;4.18;;
14994;SDS011;7593;49.006;8.372;2024-02-21T08:24:22;7.70;;;3.72;;
14994;SDS011;7593;49.006;8.372;2024-02-21T08:26:50;7.78;;;4.18;;
14994;SDS011;7593;49.006;8.372;2024-02-21T08:29:17;9.15;;;4.07;;
14994;SDS011;7593;49.006;8.372;2024-02-21T08:31:44;9.20;;;4.25;;
14994;SDS011;7593;49.006;8.372;2024-02-21T08:34:10;6.53;;;3.97;;
14994;SDS011;7593;49.006;8.372;2024-02-21T08:36:38;7.95;;;3.85;;
14994;SDS011;7593;49.006;8.372;2024-02-21T08:39:05;9.77;;;4.30;;
14994;SDS011;7593;49.006;8.372;2024-02-21T08:41:32;8.52;;;4.32;;
14994;SDS011;7593;49.006;8.372;2024-02-21T08:44:01;9.93;;;4.20;;
14994;SDS011;7593;49.006;8.372;2024-02-21T08:46:28;6.75;;;4.05;;
14994;SDS011;7593;49.006;8.372;2024-02-21T08:48:55;10.07;;;4.20;;
14994;SDS011;7593;49.006;8.372;2024-02-21T08:51:21;9.05;;;4.15;;
14994;SDS011;7593;49.006;8.372;2024-02-21T08:53:48;8.38;;;3.80;;
14994;SDS011;7593;49.006;8.372;2024-02-21T08:56:16;11.07;;;4.20;;
14994;SDS011;7593;49.006;8.372;2024-02-21T08:58:43;6.38;;;3.35;;
14994;SDS011;7593;49.006;8.372;2024-02-21T09:01:11;6.68;;;3.70;;
14994;SDS011;7593;49.006;8.372;2024-02-21T09:03:38;7.25;;;3.35;;
14994;SDS011;7593;49.006;8.372;2024-02-21T09:06:05;6.90;;;3.22;;
14994;SDS011;7593;49.006;8.372;2024-02-21T09:08:33;6.10;;;3.50;;
14994;SDS011;7593;49.006;8.372;2024-02-21T09:10:59;7.63;;;3.50;;
14994;SDS011;7593;49.006;8.372;2024-02-21T09:13:27;8.90;;;3.58;;
14994;SDS011;7593;49.006;8.372;2024-02-21T09:15:53;10.55;;;3.75;;
14994;SDS011;7593;49.006;8.372;2024-02-21T09:18:21;7.03;;;3.58;;
14994;SDS011;7593;49.006;8.372;2024-02-21T09:20:50;9.85;;;3.60;;
14994;SDS011;7593;49.006;8.372;2024-02-21T09:23:17;7.32;;;3.25;;
14994;SDS011;7593;49.006;8.372;2024-02-21T09:25:44;6.72;;;3.10;;
14994;SDS011;7593;49.006;8.372;2024-02-21T09:28:12;10.23;;;4.60;;
14994;SDS011;7593;49.006;8.372;2024-02-21T09:30:39;8.27;;;3.22;;
14994;SDS011;7593;49.006;8.372;2024-02-21T09:33:06;5.88;;;3.22;;
14994;SDS011;7593;49.006;8.372;2024-02-21T09:35:34;6.32;;;3.28;;
14994;SDS011;7593;49.006;8.372;2024-02-21T09:38:01;7.57;;;3.50;;
14994;SDS011;7593;49.006;8.372;2024-02-21T09:40:27;5.40;;;3.08;;
14994;SDS011;7593;49.006;8.372;2024-02-21T09:42:56;6.97;;;2.97;;
14994;SDS011;7593;49.006;8.372;2024-02-21T09:45:30;7.03;;;3.05;;
14994;SDS011;7593;49.006;8.372;2024-02-21T09:48:15;6.85;;;3.22;;
14994;SDS011;7593;49.006;8.372;2024-02-21T09:51:04;6.25;;;3.25;;
14994;SDS011;7593;49.006;8.372;2024-02-21T09:53:33;7.68;;;3.80;;
14994;SDS011;7593;49.006;8.372;2024-02-21T09:56:01;8.27;;;3.45;;
14994;SDS011;7593;49.006;8.372;2024-02-21T09:58:29;9.38;;;3.80;;
14994;SDS011;7593;49.006;8.372;2024-02-21T10:00:56;10.23;;;3.80;;
14994;SDS011;7593;49.006;8.372;2024-02-21T10:03:25;7.95;;;3.28;;
14994;SDS011;7593;49.006;8.372;2024-02-21T10:05:52;7.53;;;3.15;;
14994;SDS011;7593;49.006;8.372;2024-02-21T10:08:20;10.45;;;3.47;;
14994;SDS011;7593;49.006;8.372;2024-02-21T10:10:47;6.45;;;3.08;;
14994;SDS011;7593;49.006;8.372;2024-02-21T10:13:24;5.68;;;3.03;;
14994;SDS011;7593;49.006;8.372;2024-02-21T10:16:03;7.38;;;3.08;;
14994;SDS011;7593;49.006;8.372;2024-02-21T10:18:30;6.65;;;3.78;;
14994;SDS011;7593;49.006;8.372;2024-02-21T10:21:01;7.55;;;3.30;;
14994;SDS011;7593;49.006;8.372;2024-02-21T10:23:30;8.02;;;3.47;;
14994;SDS011;7593;49.006;8.372;2024-02-21T10:26:07;5.57;;;3.05;;
14994;SDS011;7593;49.006;8.372;2024-02-21T10:28:34;8.07;;;3.10;;
14994;SDS011;7593;49.006;8.372;2024-02-21T10:31:01;7.40;;;3.20;;
14994;SDS011;7593;49.006;8.372;2024-02-21T10:33:27;6.72;;;2.80;;
14994;SDS011;7593;49.006;8.372;2024-02-21T10:36:05;7.65;;;3.08;;
14994;SDS011;7593;49.006;8.372;2024-02-21T10:38:35;6.60;;;3.22;;
14994;SDS011;7593;49.006;8.372;2024-02-21T10:41:02;5.90;;;2.78;;
14994;SDS011;7593;49.006;8.372;2024-02-21T10:43:30;5.60;;;2.55;;
14994;SDS011;7593;49.006;8.372;2024-02-21T10:46:04;6.20;;;2.30;;
14994;SDS011;7593;49.006;8.372;2024-02-21T10:48:33;7.70;;;2.53;;
14994;SDS011;7593;49.006;8.372;2024-02-21T10:51:11;8.13;;;2.90;;
14994;SDS011;7593;49.006;8.372;2024-02-21T10:53:47;6.68;;;2.72;;
14994;SDS011;7593;49.006;8.372;2024-02-21T10:56:21;6.78;;;2.80;;
14994;SDS011;7593;49.006;8.372;2024-02-21T10:58:52;8.73;;;2.60;;
14994;SDS011;7593;49.006;8.372;2024-02-21T11:01:20;6.22;;;2.70;;
14994;SDS011;7593;49.006;8.372;2024-02-21T11:03:48;8.65;;;2.95;;
14994;SDS011;7593;49.006;8.372;2024-02-21T11:06:19;7.68;;;2.67;;
14994;SDS011;7593;49.006;8.372;2024-02-21T11:08:48;5.90;;;2.15;;
14994;SDS011;7593;49.006;8.372;2024-02-21T11:11:27;5.25;;;2.67;;
14994;SDS011;7593;49.006;8.372;2024-02-21T11:14:03;7.07;;;2.50;;
14994;SDS011;7593;49.006;8.372;2024-02-21T11:16:34;5.00;;;2.42;;
14994;SDS011;7593;49.006;8.372;2024-02-21T11:19:05;5.53;;;2.80;;
14994;SDS011;7593;49.006;8.372;2024-02-21T11:21:33;5.68;;;2.30;;
14994;SDS011;7593;49.006;8.372;2024-02-21T11:24:02;5.55;;;2.67;;
14994;SDS011;7593;49.006;8.372;2024-02-21T11:26:29;5.57;;;2.30;;
14994;SDS011;7593;49.006;8.372;2024-02-21T11:28:57;4.90;;;2.30;;
14994;SDS011;7593;49.006;8.372;2024-02-21T11:31:25;4.40;;;2.35;;
14994;SDS011;7593;49.006;8.372;2024-02-21T11:33:53;7.55;;;2.65;;
14994;SDS011;7593;49.006;8.372;2024-02-21T11:36:24;5.88;;;2.72;;
14994;SDS011;7593;49.006;8.372;2024-02-21T11:38:51;4.97;;;2.53;;
14994;SDS011;7593;49.006;8.372;2024-02-21T11:41:19;5.13;;;2.50;;
14994;SDS011;7593;49.006;8.372;2024-02-21T11:43:46;6.53;;;2.95;;
14994;SDS011;7593;49.006;8.372;2024-02-21T11:46:14;5.57;;;2.20;;
14994;SDS011;7593;49.006;8.372;2024-02-21T11:48:41;6.00;;;2.50;;
14994;SDS011;7593;49.006;8.372;2024-02-21T11:51:09;5.20;;;2.65;;
14994;SDS011;7593;49.006;8.372;2024-02-21T11:53:36;5.20;;;2.38;;
14994;SDS011;7593;49.006;8.372;2024-02-21T11:56:03;6.68;;;2.30;;
14994;SDS011;7593;49.006;8.372;2024-02-21T11:58:32;6.45;;;2.72;;
14994;SDS011;7593;49.006;8.372;2024-02-21T12:00:59;6.43;;;2.60;;
14994;SDS011;7593;49.006;8.372;2024-02-21T12:03:27;5.35;;;2.50;;
14994;SDS011;7593;49.006;8.372;2024-02-21T12:05:54;6.22;;;3.70;;
14994;SDS011;7593;49.006;8.372;2024-02-21T12:08:23;6.43;;;2.63;;
14994;SDS011;7593;49.006;8.372;2024-02-21T12:10:50;5.07;;;2.67;;
14994;SDS011;7593;49.006;8.372;2024-02-21T12:13:17;6.45;;;2.67;;
14994;SDS011;7593;49.006;8.372;2024-02-21T12:15:49;8.60;;;2.58;;
14994;SDS011;7593;49.006;8.372;2024-02-21T12:18:16;5.78;;;2.90;;
14994;SDS011;7593;49.006;8.372;2024-02-21T12:20:43;5.72;;;2.85;;
14994;SDS011;7593;49.006;8.372;2024-02-21T12:23:11;5.60;;;2.55;;
14994;SDS011;7593;49.006;8.372;2024-02-21T12:25:38;5.80;;;2.73;;
14994;SDS011;7593;49.006;8.372;2024-02-21T12:28:05;4.85;;;1.92;;
14994;SDS011;7593;49.006;8.372;2024-02-21T12:30:32;5.18;;;2.30;;
14994;SDS011;7593;49.006;8.372;2024-02-21T12:33:01;6.78;;;2.60;;
14994;SDS011;7593;49.006;8.372;2024-02-21T12:35:29;5.15;;;2.65;;
14994;SDS011;7593;49.006;8.372;2024-02-21T12:37:58;7.38;;;2.30;;
14994;SDS011;7593;49.006;8.372;2024-02-21T12:40:24;6.03;;;2.63;;
14994;SDS011;7593;49.006;8.372;2024-02-21T12:42:57;9.13;;;2.80;;
14994;SDS011;7593;49.006;8.372;2024-02-21T12:45:24;7.72;;;2.80;;
14994;SDS011;7593;49.006;8.372;2024-02-21T12:47:51;6.85;;;2.50;;
14994;SDS011;7593;49.006;8.372;2024-02-21T12:50:19;6.32;;;2.53;;
14994;SDS011;7593;49.006;8.372;2024-02-21T12:52:47;6.45;;;2.17;;
14994;SDS011;7593;49.006;8.372;2024-02-21T12:55:14;5.22;;;2.25;;
14994;SDS011;7593;49.006;8.372;2024-02-21T12:57:41;6.68;;;2.70;;
14994;SDS011;7593;49.006;8.372;2024-02-21T13:00:09;5.50;;;2.72;;
14994;SDS011;7593;49.006;8.372;2024-02-21T13:02:36;6.32;;;2.40;;
14994;SDS011;7593;49.006;8.372;2024-02-21T13:05:03;4.50;;;2.53;;
14994;SDS011;7593;49.006;8.372;2024-02-21T13:07:32;5.75;;;2.78;;
14994;SDS011;7593;49.006;8.372;2024-02-21T13:09:58;5.07;;;2.72;;
14994;SDS011;7593;49.006;8.372;2024-02-21T13:12:25;4.93;;;2.50;;
14994;SDS011;7593;49.006;8.372;2024-02-21T13:14:52;7.05;;;2.10;;
14994;SDS011;7593;49.006;8.372;2024-02-21T13:17:19;3.85;;;1.95;;
14994;SDS011;7593;49.006;8.372;2024-02-21T13:19:47;3.92;;;2.20;;
14994;SDS011;7593;49.006;8.372;2024-02-21T13:22:14;8.40;;;2.70;;
14994;SDS011;7593;49.006;8.372;2024-02-21T13:24:42;5.25;;;2.10;;
14994;SDS011;7593;49.006;8.372;2024-02-21T13:27:09;3.63;;;2.17;;
14994;SDS011;7593;49.006;8.372;2024-02-21T13:29:36;7.13;;;3.03;;
14994;SDS011;7593;49.006;8.372;2024-02-21T13:32:02;7.10;;;2.70;;
14994;SDS011;7593;49.006;8.372;2024-02-21T13:34:31;6.43;;;2.38;;
14994;SDS011;7593;49.006;8.372;2024-02-21T13:36:57;7.18;;;2.45;;
14994;SDS011;7593;49.006;8.372;2024-02-21T13:39:25;7.18;;;3.20;;
14994;SDS011;7593;49.006;8.372;2024-02-21T13:41:53;6.32;;;2.42;;
14994;SDS011;7593;49.006;8.372;2024-02-21T13:44:19;5.90;;;2.47;;
14994;SDS011;7593;49.006;8.372;2024-02-21T13:46:46;3.85;;;2.50;;
14994;SDS011;7593;49.006;8.372;2024-02-21T13:49:13;5.85;;;2.15;;
14994;SDS011;7593;49.006;8.372;2024-02-21T13:51:40;5.45;;;2.38;;
14994;SDS011;7593;49.006;8.372;2024-02-21T13:54:09;6.65;;;2.53;;
14994;SDS011;7593;49.006;8.372;2024-02-21T13:56:36;5.97;;;3.22;;
14994;SDS011;7593;49.006;8.372;2024-02-21T13:59:04;8.68;;;2.47;;
14994;SDS011;7593;49.006;8.372;2024-02-21T14:01:31;4.65;;;2.63;;
14994;SDS011;7593;49.006;8.372;2024-02-21T14:03:58;6.15;;;2.78;;
14994;SDS011;7593;49.006;8.372;2024-02-21T14:06:25;7.53;;;3.08;;
14994;SDS011;7593;49.006;8.372;2024-02-21T14:08:52;5.85;;;2.72;;
14994;SDS011;7593;49.006;8.372;2024-02-21T14:11:19;4.00;;;2.35;;
14994;SDS011;7593;49.006;8.372;2024-02-21T14:13:45;4.50;;;2.33;;
14994;SDS011;7593;49.006;8.372;2024-02-21T14:16:14;5.38;;;2.63;;
14994;SDS011;7593;49.006;8.372;2024-02-21T14:18:40;7.95;;;2.70;;
14994;SDS011;7593;49.006;8.372;2024-02-21T14:21:07;6.53;;;2.67;;
14994;SDS011;7593;49.006;8.372;2024-02-21T14:23:36;4.20;;;2.50;;
14994;SDS011;7593;49.006;8.372;2024-02-21T14:26:02;6.68;;;2.65;;
14994;SDS011;7593;49.006;8.372;2024-02-21T14:28:30;6.65;;;2.60;;
14994;SDS011;7593;49.006;8.372;2024-02-21T14:30:58;4.03;;;2.17;;
14994;SDS011;7593;49.006;8.372;2024-02-21T14:33:27;7.00;;;2.63;;
14994;SDS011;7593;49.006;8.372;2024-02-21T14:35:54;6.38;;;2.47;;
14994;SDS011;7593;49.006;8.372;2024-02-21T14:38:21;5.93;;;2.22;;
14994;SDS011;7593;49.006;8.372;2024-02-21T14:40:47;5.43;;;2.47;;
14994;SDS011;7593;49.006;8.372;2024-02-21T14:43:14;4.43;;;2.17;;
14994;SDS011;7593;49.006;8.372;2024-02-21T14:45:42;5.88;;;2.42;;
14994;SDS011;7593;49.006;8.372;2024-02-21T14:48:12;7.13;;;3.30;;
14994;SDS011;7593;49.006;8.372;2024-02-21T14:50:41;5.93;;;2.47;;
14994;SDS011;7593;49.006;8.372;2024-02-21T14:53:07;5.78;;;2.83;;
14994;SDS011;7593;49.006;8.372;2024-02-21T14:55:34;4.43;;;2.53;;
14994;SDS011;7593;49.006;8.372;2024-02-21T14:58:01;5.18;;;2.63;;
14994;SDS011;7593;49.006;8.372;2024-02-21T15:00:28;4.00;;;2.08;;